createdAt,value
2017-06-10T00:00:05.134Z,15.49
2017-06-10T00:00:33.397Z,15.44
2017-06-10T00:01:01.687Z,15.47
2017-06-10T00:01:29.881Z,15.49
2017-06-10T00:01:58.115Z,15.43
2017-06-10T00:02:26.234Z,15.45
2017-06-10T00:02:54.407Z,15.37
2017-06-10T00:03:22.643Z,15.49
2017-06-10T00:03:50.920Z,15.37
2017-06-10T00:04:19.103Z,15.37
2017-06-10T00:04:47.391Z,15.37
2017-06-10T00:05:15.543Z,15.41
2017-06-10T00:05:43.715Z,15.51
2017-06-10T00:06:11.926Z,15.45
2017-06-10T00:06:40.078Z,15.52
2017-06-10T00:07:08.136Z,15.38
2017-06-10T00:07:36.318Z,15.44
2017-06-10T00:08:04.436Z,15.52
2017-06-10T00:08:32.520Z,15.47
2017-06-10T00:09:00.755Z,15.52
2017-06-10T00:09:28.838Z,15.49
2017-06-10T00:09:57.131Z,15.51
2017-06-10T00:10:25.415Z,15.47
2017-06-10T00:10:53.525Z,15.53
2017-06-10T00:11:21.597Z,15.45
2017-06-10T00:11:49.885Z,15.38
2017-06-10T00:12:18.130Z,15.51
2017-06-10T00:12:46.385Z,15.45
2017-06-10T00:13:14.573Z,15.49
2017-06-10T00:13:42.849Z,15.51
2017-06-10T00:14:11.043Z,15.51
2017-06-10T00:14:38.992Z,15.52
2017-06-10T00:15:07.438Z,15.49
2017-06-10T00:15:35.728Z,15.52
2017-06-10T00:16:04.013Z,15.51
2017-06-10T00:16:32.126Z,15.47
2017-06-10T00:17:00.401Z,15.38
2017-06-10T00:17:28.633Z,15.37
2017-06-10T00:17:56.717Z,15.4
2017-06-10T00:18:24.703Z,15.38
2017-06-10T00:18:52.829Z,15.45
2017-06-10T00:19:21.072Z,15.4
2017-06-10T00:19:49.259Z,15.38
2017-06-10T00:20:17.349Z,15.37
2017-06-10T00:20:45.476Z,15.31
2017-06-10T00:21:13.746Z,15.41
2017-06-10T00:21:41.978Z,15.33
2017-06-10T00:22:10.090Z,15.26
2017-06-10T00:22:38.171Z,15.34
2017-06-10T00:23:06.456Z,15.38
2017-06-10T00:23:34.697Z,15.35
2017-06-10T00:24:02.878Z,15.3
2017-06-10T00:24:31.104Z,15.37
2017-06-10T00:24:59.494Z,15.37
2017-06-10T00:25:27.531Z,15.37
2017-06-10T00:25:55.519Z,15.3
2017-06-10T00:26:23.686Z,15.34
2017-06-10T00:26:51.832Z,15.34
2017-06-10T00:27:19.949Z,15.41
2017-06-10T00:27:48.142Z,15.33
2017-06-10T00:28:16.432Z,15.43
2017-06-10T00:28:44.731Z,15.3
2017-06-10T00:29:12.924Z,15.3
2017-06-10T00:29:41.065Z,15.38
2017-06-10T00:30:09.366Z,15.45
2017-06-10T00:30:37.604Z,15.3
2017-06-10T00:31:05.799Z,15.41
2017-06-10T00:31:33.994Z,15.3
2017-06-10T00:32:02.267Z,15.33
2017-06-10T00:32:30.544Z,15.38
2017-06-10T00:32:58.799Z,15.3
2017-06-10T00:33:26.893Z,15.37
2017-06-10T00:33:55.039Z,15.33
2017-06-10T00:34:23.210Z,15.34
2017-06-10T00:34:51.370Z,15.31
2017-06-10T00:35:19.776Z,15.37
2017-06-10T00:35:47.866Z,15.33
2017-06-10T00:36:16.024Z,15.35
2017-06-10T00:36:44.200Z,15.35
2017-06-10T00:37:12.348Z,15.35
2017-06-10T00:37:40.612Z,15.33
2017-06-10T00:38:08.845Z,15.31
2017-06-10T00:38:36.758Z,15.31
2017-06-10T00:39:04.934Z,15.27
2017-06-10T00:39:33.066Z,15.26
2017-06-10T00:40:01.366Z,15.26
2017-06-10T00:40:29.615Z,15.27
2017-06-10T00:40:57.866Z,15.27
2017-06-10T00:41:26.033Z,15.34
2017-06-10T00:41:54.228Z,15.3
2017-06-10T00:42:22.481Z,15.33
2017-06-10T00:42:50.733Z,15.27
2017-06-10T00:43:18.681Z,15.25
2017-06-10T00:43:46.948Z,15.3
2017-06-10T00:44:15.252Z,15.27
2017-06-10T00:44:43.478Z,15.13
2017-06-10T00:45:11.973Z,15.19
2017-06-10T00:45:40.200Z,15.22
2017-06-10T00:46:08.370Z,15.19
2017-06-10T00:46:36.595Z,15.18
2017-06-10T00:47:04.824Z,15.1
2017-06-10T00:47:32.909Z,15.15
2017-06-10T00:48:00.887Z,15.1
2017-06-10T00:48:29.111Z,15.08
2017-06-10T00:48:57.354Z,15.01
2017-06-10T00:49:25.620Z,15.12
2017-06-10T00:49:53.750Z,15.02
2017-06-10T00:50:22.162Z,14.98
2017-06-10T00:50:50.396Z,14.95
2017-06-10T00:51:18.467Z,14.9
2017-06-10T00:51:46.517Z,14.86
2017-06-10T00:52:14.552Z,14.95
2017-06-10T00:52:42.832Z,14.93
2017-06-10T00:53:11.054Z,14.97
2017-06-10T00:53:39.313Z,14.9
2017-06-10T00:54:07.454Z,14.94
2017-06-10T00:54:35.616Z,14.83
2017-06-10T00:55:03.774Z,14.87
2017-06-10T00:55:32.182Z,14.93
2017-06-10T00:56:00.355Z,14.86
2017-06-10T00:56:28.449Z,14.94
2017-06-10T00:56:56.595Z,14.83
2017-06-10T00:57:24.757Z,14.82
2017-06-10T00:57:52.992Z,14.85
2017-06-10T00:58:21.016Z,14.83
2017-06-10T00:58:49.162Z,14.93
2017-06-10T00:59:17.296Z,14.89
2017-06-10T00:59:45.511Z,14.98
2017-06-10T01:00:13.653Z,14.86
2017-06-10T01:00:42.128Z,14.93
2017-06-10T01:01:10.370Z,14.93
2017-06-10T01:01:38.522Z,14.85
2017-06-10T01:02:06.738Z,14.87
2017-06-10T01:02:35.000Z,14.89
2017-06-10T01:03:03.151Z,14.97
2017-06-10T01:03:31.346Z,14.94
2017-06-10T01:03:59.553Z,14.86
2017-06-10T01:04:27.707Z,14.9
2017-06-10T01:04:55.718Z,14.89
2017-06-10T01:05:24.059Z,14.97
2017-06-10T01:05:52.316Z,14.97
2017-06-10T01:06:20.279Z,14.98
2017-06-10T01:06:48.458Z,14.98
2017-06-10T01:07:16.550Z,14.89
2017-06-10T01:07:44.636Z,14.98
2017-06-10T01:08:12.829Z,14.95
2017-06-10T01:08:40.941Z,14.93
2017-06-10T01:09:09.057Z,14.94
2017-06-10T01:09:37.177Z,14.87
2017-06-10T01:10:05.443Z,14.95
2017-06-10T01:10:33.594Z,14.87
2017-06-10T01:11:01.851Z,14.93
2017-06-10T01:11:30.025Z,14.86
2017-06-10T01:11:58.154Z,14.9
2017-06-10T01:12:26.279Z,14.93
2017-06-10T01:12:54.421Z,14.9
2017-06-10T01:13:22.466Z,14.98
2017-06-10T01:13:50.673Z,14.97
2017-06-10T01:14:18.921Z,14.97
2017-06-10T01:14:47.225Z,14.93
2017-06-10T01:15:15.448Z,14.98
2017-06-10T01:15:43.653Z,14.98
2017-06-10T01:16:11.928Z,14.85
2017-06-10T01:16:40.033Z,14.87
2017-06-10T01:17:08.072Z,14.93
2017-06-10T01:17:36.372Z,14.86
2017-06-10T01:18:04.557Z,14.86
2017-06-10T01:18:32.710Z,14.89
2017-06-10T01:19:00.836Z,14.87
2017-06-10T01:19:28.983Z,14.97
2017-06-10T01:19:57.098Z,14.93
2017-06-10T01:20:25.326Z,14.94
2017-06-10T01:20:53.640Z,14.86
2017-06-10T01:21:21.806Z,14.83
2017-06-10T01:21:49.970Z,14.79
2017-06-10T01:22:18.216Z,14.77
2017-06-10T01:22:46.398Z,14.85
2017-06-10T01:23:14.625Z,14.82
2017-06-10T01:23:42.686Z,14.83
2017-06-10T01:24:10.893Z,14.82
2017-06-10T01:24:39.095Z,14.82
2017-06-10T01:25:07.308Z,14.75
2017-06-10T01:25:35.749Z,14.85
2017-06-10T01:26:03.953Z,14.71
2017-06-10T01:26:32.224Z,14.74
2017-06-10T01:27:00.354Z,14.69
2017-06-10T01:27:28.414Z,14.74
2017-06-10T01:27:56.718Z,14.75
2017-06-10T01:28:24.790Z,14.75
2017-06-10T01:28:52.834Z,14.66
2017-06-10T01:29:21.130Z,14.66
2017-06-10T01:29:49.352Z,14.63
2017-06-10T01:30:17.537Z,14.56
2017-06-10T01:30:45.940Z,14.66
2017-06-10T01:31:14.197Z,14.53
2017-06-10T01:31:42.412Z,14.48
2017-06-10T01:32:10.619Z,14.53
2017-06-10T01:32:38.661Z,14.53
2017-06-10T01:33:06.800Z,14.49
2017-06-10T01:33:34.932Z,14.52
2017-06-10T01:34:03.086Z,14.46
2017-06-10T01:34:31.134Z,14.45
2017-06-10T01:34:59.351Z,14.44
2017-06-10T01:35:27.486Z,14.48
2017-06-10T01:35:55.828Z,14.45
2017-06-10T01:36:23.895Z,14.33
2017-06-10T01:36:52.125Z,14.34
2017-06-10T01:37:20.398Z,14.38
2017-06-10T01:37:48.644Z,14.34
2017-06-10T01:38:16.931Z,14.3
2017-06-10T01:38:45.068Z,14.21
2017-06-10T01:39:13.193Z,14.31
2017-06-10T01:39:41.482Z,14.27
2017-06-10T01:40:09.689Z,14.24
2017-06-10T01:40:37.816Z,14.23
2017-06-10T01:41:06.046Z,14.3
2017-06-10T01:41:34.176Z,14.21
2017-06-10T01:42:02.364Z,14.34
2017-06-10T01:42:30.604Z,14.28
2017-06-10T01:42:58.915Z,14.26
2017-06-10T01:43:27.108Z,14.2
2017-06-10T01:43:55.345Z,14.2
2017-06-10T01:44:23.633Z,14.28
2017-06-10T01:44:51.800Z,14.15
2017-06-10T01:45:20.082Z,14.21
2017-06-10T01:45:48.327Z,14.34
2017-06-10T01:46:16.691Z,14.23
2017-06-10T01:46:44.818Z,14.19
2017-06-10T01:47:12.999Z,14.24
2017-06-10T01:47:41.079Z,14.19
2017-06-10T01:48:09.147Z,14.21
2017-06-10T01:48:37.323Z,14.21
2017-06-10T01:49:05.503Z,14.16
2017-06-10T01:49:33.695Z,14.2
2017-06-10T01:50:01.797Z,14.19
2017-06-10T01:50:30.060Z,14.15
2017-06-10T01:50:58.358Z,14.2
2017-06-10T01:51:26.600Z,14.26
2017-06-10T01:51:54.788Z,14.21
2017-06-10T01:52:23.040Z,14.26
2017-06-10T01:52:51.102Z,14.26
2017-06-10T01:53:19.226Z,14.24
2017-06-10T01:53:47.366Z,14.26
2017-06-10T01:54:15.609Z,14.26
2017-06-10T01:54:43.649Z,14.26
2017-06-10T01:55:11.831Z,14.2
2017-06-10T01:55:40.086Z,14.28
2017-06-10T01:56:08.389Z,14.3
2017-06-10T01:56:36.481Z,14.27
2017-06-10T01:57:04.636Z,14.3
2017-06-10T01:57:32.789Z,14.31
2017-06-10T01:58:00.921Z,14.21
2017-06-10T01:58:29.201Z,14.21
2017-06-10T01:58:57.370Z,14.26
2017-06-10T01:59:25.670Z,14.23
2017-06-10T01:59:53.924Z,14.23
2017-06-10T02:00:22.122Z,14.28
2017-06-10T02:00:50.277Z,14.28
2017-06-10T02:01:18.481Z,14.28
2017-06-10T02:01:46.555Z,14.33
2017-06-10T02:02:14.638Z,14.36
2017-06-10T02:02:42.779Z,14.36
2017-06-10T02:03:11.052Z,14.41
2017-06-10T02:03:39.099Z,14.36
2017-06-10T02:04:07.265Z,14.36
2017-06-10T02:04:35.398Z,14.36
2017-06-10T02:05:03.547Z,14.33
2017-06-10T02:05:31.577Z,14.28
2017-06-10T02:05:59.727Z,14.3
2017-06-10T02:06:28.161Z,14.23
2017-06-10T02:06:56.370Z,14.2
2017-06-10T02:07:24.595Z,14.2
2017-06-10T02:07:52.666Z,14.19
2017-06-10T02:08:20.948Z,14.16
2017-06-10T02:08:49.106Z,14.09
2017-06-10T02:09:17.294Z,14.11
2017-06-10T02:09:45.515Z,14.08
2017-06-10T02:10:13.683Z,14.06
2017-06-10T02:10:41.925Z,13.99
2017-06-10T02:11:10.180Z,13.95
2017-06-10T02:11:38.416Z,13.93
2017-06-10T02:12:06.652Z,13.97
2017-06-10T02:12:34.941Z,13.93
2017-06-10T02:13:03.195Z,13.99
2017-06-10T02:13:31.370Z,13.93
2017-06-10T02:13:59.407Z,13.87
2017-06-10T02:14:27.647Z,13.91
2017-06-10T02:14:55.928Z,13.87
2017-06-10T02:15:24.018Z,13.88
2017-06-10T02:15:52.147Z,13.9
2017-06-10T02:16:20.384Z,13.9
2017-06-10T02:16:48.504Z,13.84
2017-06-10T02:17:16.669Z,13.84
2017-06-10T02:17:44.650Z,13.81
2017-06-10T02:18:12.614Z,13.83
2017-06-10T02:18:40.547Z,13.87
2017-06-10T02:19:08.525Z,13.84
2017-06-10T02:19:36.642Z,13.87
2017-06-10T02:20:04.883Z,13.84
2017-06-10T02:20:33.004Z,13.84
2017-06-10T02:21:01.164Z,13.81
2017-06-10T02:21:29.473Z,13.86
2017-06-10T02:21:57.702Z,13.9
2017-06-10T02:22:25.821Z,13.95
2017-06-10T02:22:54.056Z,13.88
2017-06-10T02:23:22.285Z,13.87
2017-06-10T02:23:50.468Z,13.95
2017-06-10T02:24:18.523Z,13.9
2017-06-10T02:24:46.745Z,13.9
2017-06-10T02:25:14.898Z,13.91
2017-06-10T02:25:43.031Z,13.97
2017-06-10T02:26:11.171Z,13.93
2017-06-10T02:26:39.407Z,13.95
2017-06-10T02:27:07.671Z,13.91
2017-06-10T02:27:35.693Z,13.94
2017-06-10T02:28:03.904Z,13.91
2017-06-10T02:28:32.160Z,13.93
2017-06-10T02:29:00.210Z,13.94
2017-06-10T02:29:28.383Z,13.9
2017-06-10T02:29:56.581Z,13.95
2017-06-10T02:30:24.809Z,13.9
2017-06-10T02:30:52.855Z,13.93
2017-06-10T02:31:20.997Z,13.88
2017-06-10T02:31:49.329Z,13.88
2017-06-10T02:32:17.411Z,13.83
2017-06-10T02:32:45.653Z,13.79
2017-06-10T02:33:13.800Z,13.84
2017-06-10T02:33:41.948Z,13.83
2017-06-10T02:34:10.206Z,13.79
2017-06-10T02:34:38.245Z,13.81
2017-06-10T02:35:06.313Z,13.79
2017-06-10T02:35:34.279Z,13.73
2017-06-10T02:36:02.281Z,13.79
2017-06-10T02:36:30.690Z,13.75
2017-06-10T02:36:58.656Z,13.75
2017-06-10T02:37:26.962Z,13.78
2017-06-10T02:37:55.249Z,13.75
2017-06-10T02:38:23.412Z,13.75
2017-06-10T02:38:51.384Z,13.65
2017-06-10T02:39:19.415Z,13.62
2017-06-10T02:39:47.654Z,13.63
2017-06-10T02:40:15.888Z,13.62
2017-06-10T02:40:44.090Z,13.66
2017-06-10T02:41:12.206Z,13.63
2017-06-10T02:41:40.476Z,13.65
2017-06-10T02:42:08.642Z,13.63
2017-06-10T02:42:36.875Z,13.51
2017-06-10T02:43:05.096Z,13.5
2017-06-10T02:43:33.406Z,13.51
2017-06-10T02:44:01.445Z,13.5
2017-06-10T02:44:29.623Z,13.4
2017-06-10T02:44:57.846Z,13.39
2017-06-10T02:45:26.081Z,13.39
2017-06-10T02:45:54.110Z,13.55
2017-06-10T02:46:22.444Z,13.48
2017-06-10T02:46:50.845Z,13.5
2017-06-10T02:47:19.115Z,13.45
2017-06-10T02:47:47.176Z,13.57
2017-06-10T02:48:15.445Z,13.35
2017-06-10T02:48:43.412Z,13.5
2017-06-10T02:49:11.645Z,13.51
2017-06-10T02:49:39.748Z,13.35
2017-06-10T02:50:07.807Z,13.44
2017-06-10T02:50:36.072Z,13.44
2017-06-10T02:51:04.316Z,13.55
2017-06-10T02:51:32.586Z,13.42
2017-06-10T02:52:01.020Z,13.47
2017-06-10T02:52:29.203Z,13.37
2017-06-10T02:52:57.379Z,13.47
2017-06-10T02:53:25.458Z,13.55
2017-06-10T02:53:53.523Z,13.51
2017-06-10T02:54:21.799Z,13.54
2017-06-10T02:54:49.975Z,13.51
2017-06-10T02:55:18.137Z,13.51
2017-06-10T02:55:46.289Z,13.48
2017-06-10T02:56:14.497Z,13.5
2017-06-10T02:56:42.762Z,13.54
2017-06-10T02:57:11.054Z,13.47
2017-06-10T02:57:39.311Z,13.54
2017-06-10T02:58:07.343Z,13.39
2017-06-10T02:58:35.799Z,13.53
2017-06-10T02:59:03.945Z,13.5
2017-06-10T02:59:32.108Z,13.48
2017-06-10T03:00:00.343Z,13.55
2017-06-10T03:00:28.530Z,13.57
2017-06-10T03:00:56.642Z,13.62
2017-06-10T03:01:24.590Z,13.57
2017-06-10T03:01:52.916Z,13.51
2017-06-10T03:02:20.996Z,13.51
2017-06-10T03:02:48.992Z,13.51
2017-06-10T03:03:17.253Z,13.47
2017-06-10T03:03:45.492Z,13.5
2017-06-10T03:04:13.555Z,13.39
2017-06-10T03:04:41.641Z,13.47
2017-06-10T03:05:09.847Z,13.42
2017-06-10T03:05:37.994Z,13.44
2017-06-10T03:06:06.168Z,13.39
2017-06-10T03:06:34.292Z,13.44
2017-06-10T03:07:02.662Z,13.47
2017-06-10T03:07:30.808Z,13.4
2017-06-10T03:07:58.886Z,13.4
2017-06-10T03:08:27.011Z,13.36
2017-06-10T03:08:55.280Z,13.48
2017-06-10T03:09:23.406Z,13.44
2017-06-10T03:09:51.632Z,13.42
2017-06-10T03:10:19.821Z,13.44
2017-06-10T03:10:47.991Z,13.36
2017-06-10T03:11:16.168Z,13.44
2017-06-10T03:11:44.402Z,13.48
2017-06-10T03:12:12.875Z,13.39
2017-06-10T03:12:41.117Z,13.39
2017-06-10T03:13:09.349Z,13.36
2017-06-10T03:13:37.593Z,13.4
2017-06-10T03:14:05.863Z,13.37
2017-06-10T03:14:34.036Z,13.42
2017-06-10T03:15:01.916Z,13.44
2017-06-10T03:15:30.141Z,13.39
2017-06-10T03:15:58.274Z,13.4
2017-06-10T03:16:26.460Z,13.45
2017-06-10T03:16:54.691Z,13.54
2017-06-10T03:17:22.989Z,13.45
2017-06-10T03:17:51.230Z,13.51
2017-06-10T03:18:19.305Z,13.48
2017-06-10T03:18:47.448Z,13.44
2017-06-10T03:19:15.317Z,13.51
2017-06-10T03:19:43.447Z,13.47
2017-06-10T03:20:11.717Z,13.44
2017-06-10T03:20:39.912Z,13.5
2017-06-10T03:21:08.075Z,13.39
2017-06-10T03:21:36.239Z,13.44
2017-06-10T03:22:04.469Z,13.39
2017-06-10T03:22:32.702Z,13.42
2017-06-10T03:23:00.840Z,13.45
2017-06-10T03:23:29.084Z,13.42
2017-06-10T03:23:57.316Z,13.45
2017-06-10T03:24:25.541Z,13.42
2017-06-10T03:24:53.702Z,13.39
2017-06-10T03:25:21.857Z,13.44
2017-06-10T03:25:50.000Z,13.48
2017-06-10T03:26:18.215Z,13.48
2017-06-10T03:26:46.477Z,13.48
2017-06-10T03:27:14.812Z,13.4
2017-06-10T03:27:42.969Z,13.47
2017-06-10T03:28:11.030Z,13.44
2017-06-10T03:28:39.251Z,13.44
2017-06-10T03:29:07.312Z,13.42
2017-06-10T03:29:35.546Z,13.44
2017-06-10T03:30:03.574Z,13.4
2017-06-10T03:30:31.814Z,13.48
2017-06-10T03:30:59.901Z,13.4
2017-06-10T03:31:28.086Z,13.55
2017-06-10T03:31:56.328Z,13.45
2017-06-10T03:32:24.778Z,13.5
2017-06-10T03:32:52.874Z,13.39
2017-06-10T03:33:21.118Z,13.42
2017-06-10T03:33:49.230Z,13.36
2017-06-10T03:34:17.430Z,13.29
2017-06-10T03:34:45.646Z,13.29
2017-06-10T03:35:13.819Z,13.21
2017-06-10T03:35:42.020Z,13.13
2017-06-10T03:36:10.078Z,13.19
2017-06-10T03:36:38.337Z,13.13
2017-06-10T03:37:06.426Z,13.13
2017-06-10T03:37:34.871Z,13.11
2017-06-10T03:38:03.025Z,13.09
2017-06-10T03:38:31.277Z,13.09
2017-06-10T03:38:59.524Z,13.06
2017-06-10T03:39:27.725Z,13.09
2017-06-10T03:39:55.902Z,13.07
2017-06-10T03:40:24.103Z,12.92
2017-06-10T03:40:52.164Z,12.92
2017-06-10T03:41:20.325Z,12.96
2017-06-10T03:41:48.534Z,12.96
2017-06-10T03:42:16.666Z,12.91
2017-06-10T03:42:45.175Z,12.83
2017-06-10T03:43:13.328Z,12.89
2017-06-10T03:43:41.503Z,12.86
2017-06-10T03:44:09.589Z,12.88
2017-06-10T03:44:37.854Z,12.89
2017-06-10T03:45:05.932Z,12.86
2017-06-10T03:45:34.157Z,12.76
2017-06-10T03:46:02.234Z,12.92
2017-06-10T03:46:30.150Z,12.86
2017-06-10T03:46:58.296Z,12.84
2017-06-10T03:47:26.541Z,12.77
2017-06-10T03:47:54.890Z,12.69
2017-06-10T03:48:23.088Z,12.77
2017-06-10T03:48:51.288Z,12.77
2017-06-10T03:49:19.538Z,12.78
2017-06-10T03:49:47.757Z,12.76
2017-06-10T03:50:15.884Z,12.74
2017-06-10T03:50:44.136Z,12.74
2017-06-10T03:51:12.228Z,12.74
2017-06-10T03:51:40.363Z,12.81
2017-06-10T03:52:08.492Z,12.76
2017-06-10T03:52:36.725Z,12.69
2017-06-10T03:53:04.847Z,12.7
2017-06-10T03:53:32.918Z,12.83
2017-06-10T03:54:01.200Z,12.84
2017-06-10T03:54:29.380Z,12.84
2017-06-10T03:54:57.655Z,12.73
2017-06-10T03:55:25.898Z,12.77
2017-06-10T03:55:54.086Z,12.83
2017-06-10T03:56:22.354Z,12.76
2017-06-10T03:56:50.567Z,12.89
2017-06-10T03:57:18.761Z,12.8
2017-06-10T03:57:47.153Z,12.86
2017-06-10T03:58:15.212Z,12.74
2017-06-10T03:58:43.493Z,12.74
2017-06-10T03:59:11.796Z,12.74
2017-06-10T03:59:40.073Z,12.73
2017-06-10T04:00:08.257Z,12.63
2017-06-10T04:00:36.443Z,12.66
2017-06-10T04:01:04.658Z,12.65
2017-06-10T04:01:32.908Z,12.62
2017-06-10T04:02:01.144Z,12.59
2017-06-10T04:02:29.408Z,12.59
2017-06-10T04:02:57.790Z,12.55
2017-06-10T04:03:26.049Z,12.52
2017-06-10T04:03:54.110Z,12.45
2017-06-10T04:04:22.269Z,12.43
2017-06-10T04:04:50.407Z,12.48
2017-06-10T04:05:18.634Z,12.44
2017-06-10T04:05:46.874Z,12.44
2017-06-10T04:06:15.049Z,12.43
2017-06-10T04:06:43.282Z,12.52
2017-06-10T04:07:11.535Z,12.52
2017-06-10T04:07:39.593Z,12.51
2017-06-10T04:08:08.221Z,12.48
2017-06-10T04:08:36.395Z,12.51
2017-06-10T04:09:04.554Z,12.45
2017-06-10T04:09:32.697Z,12.45
2017-06-10T04:10:00.826Z,12.48
2017-06-10T04:10:28.950Z,12.43
2017-06-10T04:10:57.145Z,12.47
2017-06-10T04:11:25.278Z,12.45
2017-06-10T04:11:53.564Z,12.45
2017-06-10T04:12:21.613Z,12.51
2017-06-10T04:12:49.863Z,12.45
2017-06-10T04:13:17.961Z,12.44
2017-06-10T04:13:46.070Z,12.43
2017-06-10T04:14:14.245Z,12.43
2017-06-10T04:14:42.411Z,12.44
2017-06-10T04:15:10.471Z,12.45
2017-06-10T04:15:38.616Z,12.38
2017-06-10T04:16:06.758Z,12.45
2017-06-10T04:16:35.050Z,12.34
2017-06-10T04:17:02.878Z,12.33
2017-06-10T04:17:31.160Z,12.34
2017-06-10T04:17:59.489Z,12.36
2017-06-10T04:18:27.560Z,12.28
2017-06-10T04:18:55.753Z,12.26
2017-06-10T04:19:24.006Z,12.34
2017-06-10T04:19:52.241Z,12.37
2017-06-10T04:20:20.406Z,12.33
2017-06-10T04:20:48.578Z,12.33
2017-06-10T04:21:16.752Z,12.37
2017-06-10T04:21:44.992Z,12.34
2017-06-10T04:22:13.025Z,12.34
2017-06-10T04:22:41.086Z,12.31
2017-06-10T04:23:09.205Z,12.28
2017-06-10T04:23:37.185Z,12.31
2017-06-10T04:24:05.295Z,12.38
2017-06-10T04:24:33.547Z,12.22
2017-06-10T04:25:01.703Z,12.23
2017-06-10T04:25:29.825Z,12.25
2017-06-10T04:25:57.817Z,12.26
2017-06-10T04:26:25.969Z,12.26
2017-06-10T04:26:54.125Z,12.26
2017-06-10T04:27:22.408Z,12.26
2017-06-10T04:27:50.369Z,12.23
2017-06-10T04:28:18.857Z,12.23
2017-06-10T04:28:47.037Z,12.25
2017-06-10T04:29:15.323Z,12.13
2017-06-10T04:29:43.466Z,12.16
2017-06-10T04:30:11.532Z,12.18
2017-06-10T04:30:39.726Z,12.2
2017-06-10T04:31:07.887Z,12.2
2017-06-10T04:31:36.070Z,12.13
2017-06-10T04:32:04.185Z,12.25
2017-06-10T04:32:32.481Z,12.15
2017-06-10T04:33:00.514Z,12.13
2017-06-10T04:33:28.895Z,12.16
2017-06-10T04:33:57.183Z,12.23
2017-06-10T04:34:25.456Z,12.23
2017-06-10T04:34:53.488Z,12.23
2017-06-10T04:35:21.727Z,12.2
2017-06-10T04:35:49.902Z,12.26
2017-06-10T04:36:18.180Z,12.33
2017-06-10T04:36:46.247Z,12.28
2017-06-10T04:37:14.479Z,12.29
2017-06-10T04:37:42.760Z,12.31
2017-06-10T04:38:10.870Z,12.26
2017-06-10T04:38:39.290Z,12.28
2017-06-10T04:39:07.460Z,12.25
2017-06-10T04:39:35.684Z,12.33
2017-06-10T04:40:03.901Z,12.33
2017-06-10T04:40:32.068Z,12.26
2017-06-10T04:41:00.301Z,12.33
2017-06-10T04:41:28.504Z,12.36
2017-06-10T04:41:56.700Z,12.38
2017-06-10T04:42:24.967Z,12.41
2017-06-10T04:42:53.231Z,12.44
2017-06-10T04:43:21.742Z,12.43
2017-06-10T04:43:49.894Z,12.45
2017-06-10T04:44:18.030Z,12.45
2017-06-10T04:44:46.198Z,12.47
2017-06-10T04:45:14.345Z,12.47
2017-06-10T04:45:42.498Z,12.51
2017-06-10T04:46:10.701Z,12.48
2017-06-10T04:46:38.742Z,12.51
2017-06-10T04:47:06.822Z,12.44
2017-06-10T04:47:34.990Z,12.45
2017-06-10T04:48:03.266Z,12.53
2017-06-10T04:48:31.640Z,12.53
2017-06-10T04:48:59.829Z,12.55
2017-06-10T04:49:27.946Z,12.56
2017-06-10T04:49:56.239Z,12.62
2017-06-10T04:50:24.505Z,12.61
2017-06-10T04:50:52.542Z,12.63
2017-06-10T04:51:20.861Z,12.61
2017-06-10T04:51:49.131Z,12.62
2017-06-10T04:52:17.378Z,12.63
2017-06-10T04:52:45.580Z,12.63
2017-06-10T04:53:13.690Z,12.63
2017-06-10T04:53:41.906Z,12.63
2017-06-10T04:54:10.161Z,12.73
2017-06-10T04:54:38.337Z,12.71
2017-06-10T04:55:06.464Z,12.7
2017-06-10T04:55:34.660Z,12.74
2017-06-10T04:56:02.908Z,12.78
2017-06-10T04:56:31.157Z,12.73
2017-06-10T04:56:59.253Z,12.74
2017-06-10T04:57:27.422Z,12.77
2017-06-10T04:57:55.560Z,12.88
2017-06-10T04:58:23.805Z,12.86
2017-06-10T04:58:52.074Z,12.89
2017-06-10T04:59:20.358Z,12.84
2017-06-10T04:59:48.542Z,12.89
2017-06-10T05:00:16.675Z,12.88
2017-06-10T05:00:44.944Z,12.88
2017-06-10T05:01:13.163Z,12.86
2017-06-10T05:01:41.364Z,12.89
2017-06-10T05:02:09.550Z,12.92
2017-06-10T05:02:37.770Z,12.78
2017-06-10T05:03:05.927Z,12.8
2017-06-10T05:03:34.192Z,12.81
2017-06-10T05:04:02.517Z,12.77
2017-06-10T05:04:30.632Z,12.7
2017-06-10T05:04:58.790Z,12.73
2017-06-10T05:05:27.058Z,12.69
2017-06-10T05:05:55.232Z,12.65
2017-06-10T05:06:23.323Z,12.63
2017-06-10T05:06:51.475Z,12.69
2017-06-10T05:07:19.629Z,12.63
2017-06-10T05:07:47.881Z,12.59
2017-06-10T05:08:15.902Z,12.48
2017-06-10T05:08:44.302Z,12.55
2017-06-10T05:09:12.533Z,12.44
2017-06-10T05:09:40.847Z,12.41
2017-06-10T05:10:09.094Z,12.51
2017-06-10T05:10:37.342Z,12.33
2017-06-10T05:11:05.424Z,12.33
2017-06-10T05:11:33.387Z,12.33
2017-06-10T05:12:01.377Z,12.22
2017-06-10T05:12:29.467Z,12.25
2017-06-10T05:12:57.672Z,12.28
2017-06-10T05:13:25.937Z,12.22
2017-06-10T05:13:54.146Z,12.16
2017-06-10T05:14:22.390Z,12.13
2017-06-10T05:14:50.420Z,12.13
2017-06-10T05:15:18.562Z,12.15
2017-06-10T05:15:46.852Z,12.08
2017-06-10T05:16:15.047Z,12.04
2017-06-10T05:16:43.251Z,11.98
2017-06-10T05:17:11.516Z,12.04
2017-06-10T05:17:39.783Z,11.88
2017-06-10T05:18:07.882Z,11.82
2017-06-10T05:18:36.055Z,11.75
2017-06-10T05:19:04.407Z,11.7
2017-06-10T05:19:32.674Z,11.7
2017-06-10T05:20:00.729Z,11.76
2017-06-10T05:20:28.851Z,11.66
2017-06-10T05:20:57.088Z,11.61
2017-06-10T05:21:25.145Z,11.7
2017-06-10T05:21:53.412Z,11.71
2017-06-10T05:22:21.544Z,11.61
2017-06-10T05:22:49.669Z,11.63
2017-06-10T05:23:17.833Z,11.66
2017-06-10T05:23:46.005Z,11.59
2017-06-10T05:24:14.198Z,11.64
2017-06-10T05:24:42.422Z,11.7
2017-06-10T05:25:10.502Z,11.64
2017-06-10T05:25:38.723Z,11.64
2017-06-10T05:26:06.900Z,11.61
2017-06-10T05:26:35.121Z,11.67
2017-06-10T05:27:03.361Z,11.7
2017-06-10T05:27:31.533Z,11.75
2017-06-10T05:27:59.682Z,11.64
2017-06-10T05:28:27.951Z,11.64
2017-06-10T05:28:56.155Z,11.6
2017-06-10T05:29:24.435Z,11.71
2017-06-10T05:29:52.676Z,11.66
2017-06-10T05:30:20.970Z,11.61
2017-06-10T05:30:49.210Z,11.6
2017-06-10T05:31:17.329Z,11.61
2017-06-10T05:31:45.467Z,11.53
2017-06-10T05:32:13.653Z,11.61
2017-06-10T05:32:41.870Z,11.49
2017-06-10T05:33:10.137Z,11.48
2017-06-10T05:33:38.395Z,11.57
2017-06-10T05:34:06.606Z,11.57
2017-06-10T05:34:34.741Z,11.57
2017-06-10T05:35:03.040Z,11.52
2017-06-10T05:35:31.206Z,11.53
2017-06-10T05:35:59.289Z,11.51
2017-06-10T05:36:27.322Z,11.51
2017-06-10T05:36:55.500Z,11.51
2017-06-10T05:37:23.707Z,11.61
2017-06-10T05:37:51.890Z,11.46
2017-06-10T05:38:20.154Z,11.56
2017-06-10T05:38:48.347Z,11.45
2017-06-10T05:39:16.572Z,11.46
2017-06-10T05:39:44.732Z,11.42
2017-06-10T05:40:13.000Z,11.42
2017-06-10T05:40:41.038Z,11.48
2017-06-10T05:41:09.244Z,11.38
2017-06-10T05:41:37.397Z,11.41
2017-06-10T05:42:05.600Z,11.35
2017-06-10T05:42:33.849Z,11.42
2017-06-10T05:43:02.123Z,11.46
2017-06-10T05:43:30.175Z,11.38
2017-06-10T05:43:58.341Z,11.34
2017-06-10T05:44:26.864Z,11.33
2017-06-10T05:44:55.045Z,11.26
2017-06-10T05:45:23.338Z,11.23
2017-06-10T05:45:51.453Z,11.24
2017-06-10T05:46:19.673Z,11.21
2017-06-10T05:46:47.846Z,11.3
2017-06-10T05:47:15.967Z,11.21
2017-06-10T05:47:44.041Z,11.27
2017-06-10T05:48:12.313Z,11.28
2017-06-10T05:48:40.471Z,11.3
2017-06-10T05:49:08.585Z,11.27
2017-06-10T05:49:36.987Z,11.26
2017-06-10T05:50:05.154Z,11.21
2017-06-10T05:50:33.418Z,11.15
2017-06-10T05:51:01.517Z,11.16
2017-06-10T05:51:29.793Z,11.05
2017-06-10T05:51:57.800Z,11.13
2017-06-10T05:52:25.759Z,10.98
2017-06-10T05:52:53.792Z,11
2017-06-10T05:53:22.073Z,11.06
2017-06-10T05:53:50.250Z,10.98
2017-06-10T05:54:18.322Z,10.97
2017-06-10T05:54:46.667Z,10.91
2017-06-10T05:55:14.909Z,10.91
2017-06-10T05:55:43.028Z,10.88
2017-06-10T05:56:11.192Z,10.84
2017-06-10T05:56:39.422Z,10.83
2017-06-10T05:57:07.579Z,10.87
2017-06-10T05:57:35.758Z,10.76
2017-06-10T05:58:03.924Z,10.79
2017-06-10T05:58:32.051Z,10.79
2017-06-10T05:59:00.093Z,10.69
2017-06-10T05:59:28.331Z,10.69
2017-06-10T05:59:56.620Z,10.7
2017-06-10T06:00:24.695Z,10.72
2017-06-10T06:00:52.906Z,10.66
2017-06-10T06:01:21.162Z,10.65
2017-06-10T06:01:49.375Z,10.65
2017-06-10T06:02:17.620Z,10.65
2017-06-10T06:02:45.903Z,10.58
2017-06-10T06:03:14.065Z,10.58
2017-06-10T06:03:42.327Z,10.52
2017-06-10T06:04:10.409Z,10.46